Time;durP1;ratioP1;P1;durP2;ratioP2;P2;SDS_P1;SDS_P2;PMS_P1;PMS_P2;Temp;Humidity;BMP_temperature;BMP_pressure;BME280_temperature;BME280_humidity;BME280_pressure;Samples;Min_cycle;Max_cycle;Signal;HPM_P1;HPM_P2
2022/10/09 00:00:16;;;;;;;2.25;1.00;;;20.50;75.80;;;;;;4991972;28;45363;-71
2022/10/09 00:02:43;;;;;;;1.08;0.95;;;20.50;75.70;;;;;;4986382;28;45311;-71
2022/10/09 00:05:10;;;;;;;2.47;1.00;;;20.50;75.80;;;;;;4990702;28;45532;-71
2022/10/09 00:07:36;;;;;;;1.95;1.08;;;20.40;75.70;;;;;;4985478;28;46353;-71
2022/10/09 00:10:04;;;;;;;2.90;1.00;;;20.50;75.40;;;;;;4992501;28;45351;-71
2022/10/09 00:12:31;;;;;;;1.67;0.75;;;20.50;75.40;;;;;;4983100;28;45456;-71
2022/10/09 00:14:58;;;;;;;2.65;1.20;;;20.50;75.20;;;;;;4988210;28;45506;-71
2022/10/09 00:17:26;;;;;;;1.70;1.20;;;20.50;75.30;;;;;;4984653;28;45370;-71
2022/10/09 00:19:52;;;;;;;1.45;1.00;;;20.50;75.40;;;;;;4981883;28;45502;-71
2022/10/09 00:22:19;;;;;;;1.48;1.20;;;20.50;75.20;;;;;;4980001;28;45322;-71
2022/10/09 00:24:46;;;;;;;3.13;1.00;;;20.50;75.10;;;;;;4984747;28;45648;-72
2022/10/09 00:27:13;;;;;;;1.80;1.10;;;20.50;75.20;;;;;;4987254;28;47092;-71
2022/10/09 00:29:39;;;;;;;1.83;1.10;;;20.50;75.10;;;;;;4984864;28;45434;-71
2022/10/09 00:32:06;;;;;;;2.95;1.17;;;20.50;74.90;;;;;;4991142;28;45526;-71
2022/10/09 00:34:34;;;;;;;2.10;1.00;;;20.50;75.00;;;;;;4991271;28;45265;-71
2022/10/09 00:37:01;;;;;;;3.92;1.30;;;20.50;75.00;;;;;;4991642;28;45374;-71
2022/10/09 00:39:28;;;;;;;2.58;1.13;;;20.50;74.90;;;;;;4983515;28;45628;-72
2022/10/09 00:41:55;;;;;;;1.45;0.90;;;20.50;74.80;;;;;;4981962;28;45344;-71
2022/10/09 00:44:48;;;;;;;2.30;1.30;;;20.50;74.70;;;;;;4993965;28;45717;-71
2022/10/09 00:47:18;;;;;;;3.42;1.00;;;20.50;74.30;;;;;;4988751;28;47341;-71
2022/10/09 00:49:48;;;;;;;2.38;1.10;;;20.50;74.20;;;;;;4988192;28;45405;-71
2022/10/09 00:52:15;;;;;;;2.60;1.30;;;20.40;74.20;;;;;;4989297;28;45350;-71
2022/10/09 00:54:43;;;;;;;2.53;1.25;;;20.40;74.20;;;;;;4989446;28;45320;-71
2022/10/09 00:57:11;;;;;;;1.90;1.15;;;20.40;75.30;;;;;;4984888;28;46241;-71
2022/10/09 00:59:38;;;;;;;2.22;1.20;;;20.40;74.00;;;;;;4986624;28;45834;-71
2022/10/09 01:02:05;;;;;;;3.20;1.30;;;20.40;74.10;;;;;;4985337;28;45440;-71
2022/10/09 01:04:32;;;;;;;1.70;1.00;;;20.40;74.00;;;;;;4994195;28;45369;-71
2022/10/09 01:07:14;;;;;;;1.58;1.10;;;20.40;74.00;;;;;;4989032;28;46616;-71
2022/10/09 01:09:47;;;;;;;1.30;0.90;;;20.40;74.10;;;;;;4986537;28;46964;-71
2022/10/09 01:12:21;;;;;;;1.85;0.98;;;20.40;74.00;;;;;;4987183;28;45335;-71
2022/10/09 01:14:57;;;;;;;2.53;1.15;;;20.40;74.90;;;;;;4990987;28;45405;-71
2022/10/09 01:17:33;;;;;;;2.00;1.10;;;20.40;74.00;;;;;;4987008;28;47106;-71
2022/10/09 01:20:22;;;;;;;2.58;1.10;;;20.50;74.00;;;;;;4985419;28;45934;-71
2022/10/09 01:23:16;;;;;;;1.83;0.75;;;20.40;73.70;;;;;;4991888;28;45473;-71
2022/10/09 01:25:53;;;;;;;2.20;1.20;;;20.40;73.90;;;;;;4992846;28;45650;-71
2022/10/09 01:28:27;;;;;;;3.22;1.00;;;20.40;73.70;;;;;;4993289;28;48288;-71
2022/10/09 01:30:55;;;;;;;1.05;0.75;;;20.40;73.60;;;;;;4984578;28;45532;-71
2022/10/09 01:33:22;;;;;;;1.92;1.08;;;20.50;73.80;;;;;;4984265;28;45457;-71
2022/10/09 01:35:50;;;;;;;1.48;0.93;;;20.50;73.80;;;;;;4993457;28;45427;-71
2022/10/09 01:38:17;;;;;;;1.58;1.38;;;20.40;73.50;;;;;;4986827;28;46194;-71
2022/10/09 01:40:44;;;;;;;2.05;1.27;;;20.40;73.50;;;;;;4988304;28;45292;-71
2022/10/09 01:43:11;;;;;;;1.35;0.90;;;20.40;73.30;;;;;;4986360;28;45381;-71
2022/10/09 01:45:42;;;;;;;2.20;1.00;;;20.40;73.20;;;;;;4990003;28;45550;-71
2022/10/09 01:48:13;;;;;;;1.67;1.17;;;20.40;73.10;;;;;;4982577;28;46636;-71
2022/10/09 01:50:44;;;;;;;1.98;1.00;;;20.40;72.90;;;;;;4987012;28;45512;-71
2022/10/09 01:53:13;;;;;;;1.88;0.98;;;20.40;72.70;;;;;;4987136;28;45208;-71
2022/10/09 01:55:46;;;;;;;1.08;0.90;;;20.40;72.80;;;;;;4979174;28;45371;-71
2022/10/09 01:58:20;;;;;;;1.95;1.00;;;20.40;72.50;;;;;;4985560;28;48428;-71
2022/10/09 02:00:56;;;;;;;1.17;0.88;;;20.40;72.30;;;;;;4984662;28;45545;-71
2022/10/09 02:03:25;;;;;;;2.20;1.20;;;20.40;72.20;;;;;;4980817;28;45445;-71
2022/10/09 02:05:54;;;;;;;1.05;0.80;;;20.40;72.50;;;;;;4989226;28;45358;-71
2022/10/09 02:08:23;;;;;;;1.60;0.98;;;20.40;72.60;;;;;;4984369;28;48445;-71
2022/10/09 02:10:53;;;;;;;2.15;1.10;;;20.40;72.60;;;;;;4983233;28;45489;-72
2022/10/09 02:13:21;;;;;;;2.72;1.05;;;20.40;72.60;;;;;;4981375;28;45360;-71
2022/10/09 02:15:53;;;;;;;1.60;1.10;;;20.40;72.80;;;;;;4982678;28;45336;-71
2022/10/09 02:18:25;;;;;;;1.88;1.00;;;20.40;72.60;;;;;;4984237;28;45398;-71
2022/10/09 02:20:59;;;;;;;1.83;0.93;;;20.40;72.50;;;;;;4984244;28;45849;-71
2022/10/09 02:23:27;;;;;;;2.97;1.10;;;20.40;72.70;;;;;;4981371;28;45532;-71
2022/10/09 02:25:54;;;;;;;1.77;1.02;;;20.40;72.60;;;;;;4979776;28;45489;-71
2022/10/09 02:28:22;;;;;;;2.13;1.10;;;20.40;72.40;;;;;;4979776;28;46079;-71
2022/10/09 02:30:56;;;;;;;2.50;0.88;;;20.40;72.60;;;;;;4976892;28;45400;-71
2022/10/09 02:33:27;;;;;;;2.08;1.30;;;20.40;72.40;;;;;;4981118;28;45434;-71
2022/10/09 02:35:54;;;;;;;2.60;1.13;;;20.40;72.20;;;;;;4980286;28;45538;-71
2022/10/09 02:38:21;;;;;;;1.40;1.02;;;20.40;71.80;;;;;;4982007;28;45277;-71
2022/10/09 02:40:47;;;;;;;1.90;1.23;;;20.40;71.90;;;;;;4982977;28;45393;-71
2022/10/09 02:43:14;;;;;;;2.17;1.23;;;20.40;71.90;;;;;;4980097;28;45592;-71
2022/10/09 02:45:42;;;;;;;1.48;0.95;;;20.40;71.60;;;;;;4990237;28;45624;-71
2022/10/09 02:48:10;;;;;;;1.17;1.00;;;20.40;71.50;;;;;;4983033;28;47749;-71
2022/10/09 02:50:37;;;;;;;1.10;0.75;;;20.40;71.40;;;;;;4983453;28;45737;-71
2022/10/09 02:53:04;;;;;;;0.88;0.75;;;20.40;71.00;;;;;;4980452;28;45624;-71
2022/10/09 02:55:30;;;;;;;1.98;0.93;;;20.40;71.30;;;;;;4982936;28;45451;-71
2022/10/09 02:57:57;;;;;;;2.28;1.10;;;20.40;71.00;;;;;;4982679;28;47351;-71
2022/10/09 03:00:24;;;;;;;1.63;1.00;;;20.40;71.30;;;;;;4987125;28;45252;-71
2022/10/09 03:02:51;;;;;;;1.05;0.80;;;20.40;71.50;;;;;;5001983;28;45366;-71
2022/10/09 03:05:19;;;;;;;2.50;1.10;;;20.40;71.40;;;;;;5003104;28;45361;-71
2022/10/09 03:07:50;;;;;;;2.08;0.90;;;20.40;71.60;;;;;;4999547;28;48012;-71
2022/10/09 03:10:17;;;;;;;1.40;0.90;;;20.40;71.50;;;;;;5006013;28;45427;-71
2022/10/09 03:12:44;;;;;;;1.50;0.95;;;20.40;71.40;;;;;;5002855;28;45423;-72
2022/10/09 03:15:11;;;;;;;1.30;0.85;;;20.40;71.40;;;;;;5005753;28;45369;-71
2022/10/09 03:17:38;;;;;;;1.23;0.90;;;20.40;71.50;;;;;;5001476;28;45525;-71
2022/10/09 03:20:06;;;;;;;3.35;1.10;;;20.40;71.40;;;;;;4999036;28;45416;-71
2022/10/09 03:22:34;;;;;;;2.67;1.05;;;20.40;71.40;;;;;;5000481;28;45382;-71
2022/10/09 03:25:01;;;;;;;1.73;1.00;;;20.40;71.30;;;;;;4999288;28;45391;-71
2022/10/09 03:27:29;;;;;;;2.55;1.00;;;20.40;71.30;;;;;;5004613;28;47095;-71
2022/10/09 03:29:56;;;;;;;1.02;0.80;;;20.30;71.00;;;;;;5002354;28;45448;-71
2022/10/09 03:32:23;;;;;;;1.90;0.90;;;20.40;70.80;;;;;;5016459;28;45455;-71
2022/10/09 03:34:50;;;;;;;1.42;0.90;;;20.40;70.60;;;;;;5023469;28;45448;-71
2022/10/09 03:37:17;;;;;;;1.85;1.10;;;20.40;70.70;;;;;;5013532;28;45390;-71
2022/10/09 03:39:45;;;;;;;1.35;0.88;;;20.40;71.50;;;;;;5001789;28;45977;-71
2022/10/09 03:42:12;;;;;;;0.95;0.77;;;20.40;70.40;;;;;;4999740;28;45220;-71
2022/10/09 03:44:38;;;;;;;1.67;0.93;;;20.30;70.00;;;;;;5001918;28;45383;-71
2022/10/09 03:47:05;;;;;;;1.88;1.00;;;20.30;69.80;;;;;;5000412;28;49023;-71
2022/10/09 03:49:32;;;;;;;1.95;0.90;;;20.30;69.70;;;;;;5003037;28;45468;-71
2022/10/09 03:51:59;;;;;;;1.73;0.85;;;20.30;69.60;;;;;;5000391;28;45291;-71
2022/10/09 03:54:26;;;;;;;0.82;0.77;;;20.30;69.40;;;;;;4993368;28;45324;-71
2022/10/09 03:56:54;;;;;;;1.73;1.00;;;20.30;70.00;;;;;;4997983;28;46588;-71
2022/10/09 03:59:21;;;;;;;1.88;0.80;;;20.30;70.10;;;;;;5001030;28;45473;-71
2022/10/09 04:01:47;;;;;;;2.55;1.02;;;20.30;70.30;;;;;;4985593;28;45557;-71
2022/10/09 04:04:14;;;;;;;2.28;1.10;;;20.30;70.30;;;;;;4973877;28;45664;-71
2022/10/09 04:06:41;;;;;;;2.70;1.02;;;20.30;70.10;;;;;;4979797;28;45552;-71
2022/10/09 04:09:08;;;;;;;1.45;0.85;;;20.40;70.30;;;;;;4973025;28;45485;-71
2022/10/09 04:11:35;;;;;;;4.03;1.02;;;20.40;70.10;;;;;;4982822;28;45501;-71
2022/10/09 04:14:04;;;;;;;1.45;1.00;;;20.30;70.00;;;;;;4974471;28;45450;-71
2022/10/09 04:16:31;;;;;;;1.83;1.10;;;20.40;70.20;;;;;;4979937;28;47568;-71
2022/10/09 04:18:57;;;;;;;1.98;0.77;;;20.40;70.10;;;;;;4971939;28;45572;-71
2022/10/09 04:21:24;;;;;;;2.17;0.93;;;20.40;70.10;;;;;;4981051;28;45430;-71
2022/10/09 04:23:51;;;;;;;1.20;1.00;;;20.40;69.90;;;;;;4974855;28;45699;-71
2022/10/09 04:26:18;;;;;;;1.33;0.90;;;20.30;69.70;;;;;;4979103;28;45457;-71
2022/10/09 04:28:45;;;;;;;1.00;0.70;;;20.40;69.50;;;;;;4981406;28;45590;-71
2022/10/09 04:31:13;;;;;;;1.90;0.98;;;20.30;69.30;;;;;;4974425;28;45302;-71
2022/10/09 04:33:40;;;;;;;1.55;0.80;;;20.40;69.50;;;;;;4972956;28;45603;-71
2022/10/09 04:36:07;;;;;;;1.73;1.00;;;20.30;69.10;;;;;;4979416;28;45547;-71
2022/10/09 04:38:34;;;;;;;2.45;0.82;;;20.30;69.10;;;;;;4972909;28;45279;-71
2022/10/09 04:41:02;;;;;;;2.90;0.93;;;20.30;68.50;;;;;;4972441;28;45450;-71
2022/10/09 04:43:30;;;;;;;2.90;0.93;;;20.30;68.80;;;;;;4967347;28;45521;-71
2022/10/09 04:45:57;;;;;;;3.45;1.00;;;20.30;68.70;;;;;;4970228;28;47495;-70
2022/10/09 04:48:25;;;;;;;1.40;0.80;;;20.30;69.00;;;;;;4978258;28;45443;-71
2022/10/09 04:50:52;;;;;;;1.83;0.98;;;20.30;69.20;;;;;;4972214;28;45664;-71
2022/10/09 04:53:19;;;;;;;1.77;1.00;;;20.30;69.20;;;;;;4977428;28;45420;-71
2022/10/09 04:55:46;;;;;;;1.40;0.82;;;20.30;69.40;;;;;;4977795;28;48047;-71
2022/10/09 04:58:13;;;;;;;1.65;1.00;;;20.30;69.40;;;;;;4973594;28;45405;-71
2022/10/09 05:00:41;;;;;;;1.15;0.90;;;20.30;69.40;;;;;;4985926;28;45343;-71
2022/10/09 05:03:10;;;;;;;1.20;0.80;;;20.30;70.50;;;;;;5000036;28;45546;-71
2022/10/09 05:05:38;;;;;;;1.67;1.02;;;20.30;69.60;;;;;;4982388;28;47180;-71
2022/10/09 05:08:05;;;;;;;1.58;1.05;;;20.30;69.50;;;;;;5000275;28;45478;-70
2022/10/09 05:10:32;;;;;;;1.65;0.98;;;20.30;69.40;;;;;;4999737;28;45299;-71
2022/10/09 05:12:59;;;;;;;1.42;0.90;;;20.30;69.50;;;;;;4998330;28;45517;-71
2022/10/09 05:15:26;;;;;;;2.53;1.13;;;20.30;69.40;;;;;;5000058;28;46638;-71
2022/10/09 05:17:53;;;;;;;0.85;0.73;;;20.30;69.10;;;;;;4998615;28;45362;-71
2022/10/09 05:20:20;;;;;;;0.95;0.77;;;20.30;69.10;;;;;;4999391;28;45362;-71
2022/10/09 05:22:49;;;;;;;1.63;0.90;;;20.30;69.00;;;;;;4998879;28;45753;-71
2022/10/09 05:25:16;;;;;;;1.23;0.80;;;20.30;68.90;;;;;;5000991;28;48067;-71
2022/10/09 05:27:42;;;;;;;2.35;0.70;;;20.30;68.70;;;;;;5000308;28;45409;-71
2022/10/09 05:30:10;;;;;;;2.75;1.00;;;20.30;68.50;;;;;;5000285;28;45394;-71
2022/10/09 05:32:37;;;;;;;1.25;1.00;;;20.30;68.70;;;;;;4998821;28;45551;-70
2022/10/09 05:35:04;;;;;;;1.45;0.90;;;20.30;68.30;;;;;;5001292;28;45380;-71
2022/10/09 05:37:31;;;;;;;0.90;0.65;;;20.30;68.30;;;;;;5000073;28;45429;-71
2022/10/09 05:39:59;;;;;;;1.23;0.90;;;20.30;68.10;;;;;;4998463;28;45473;-71
2022/10/09 05:42:26;;;;;;;0.93;0.80;;;20.30;68.80;;;;;;4996193;28;45571;-71
2022/10/09 05:44:52;;;;;;;1.60;1.00;;;20.30;68.90;;;;;;5000652;28;48555;-71
2022/10/09 05:47:19;;;;;;;1.17;0.80;;;20.30;68.80;;;;;;4993658;28;45422;-71
2022/10/09 05:49:46;;;;;;;1.23;0.82;;;20.30;68.80;;;;;;4999694;28;45424;-71
2022/10/09 05:52:13;;;;;;;0.80;0.80;;;20.30;68.70;;;;;;5003512;28;45343;-71
2022/10/09 05:54:40;;;;;;;1.85;1.00;;;20.30;68.70;;;;;;5003491;28;47520;-71
2022/10/09 05:57:08;;;;;;;0.77;0.70;;;20.30;68.70;;;;;;5001139;28;45408;-71
2022/10/09 05:59:35;;;;;;;1.52;0.90;;;20.30;68.80;;;;;;5003555;28;45288;-71
2022/10/09 06:02:02;;;;;;;2.65;0.80;;;20.30;68.90;;;;;;4982347;28;45569;-71
2022/10/09 06:04:29;;;;;;;0.85;0.70;;;20.30;69.00;;;;;;4973064;28;47447;-71
2022/10/09 06:06:57;;;;;;;0.93;0.75;;;20.30;68.70;;;;;;4978971;28;45398;-71
2022/10/09 06:09:25;;;;;;;1.50;0.95;;;20.30;68.50;;;;;;4986080;28;45504;-71
2022/10/09 06:11:53;;;;;;;1.20;0.80;;;20.30;68.40;;;;;;4984181;28;45419;-71
2022/10/09 06:14:23;;;;;;;2.00;0.95;;;20.30;68.30;;;;;;4975162;28;47262;-71
2022/10/09 06:16:50;;;;;;;1.10;0.80;;;20.30;68.20;;;;;;4982291;28;45382;-71
2022/10/09 06:19:18;;;;;;;1.05;0.70;;;20.30;69.10;;;;;;4981912;28;45377;-71
2022/10/09 06:21:46;;;;;;;1.83;0.95;;;20.30;67.90;;;;;;4977938;28;45547;-71
2022/10/09 06:24:18;;;;;;;1.95;0.95;;;20.30;68.00;;;;;;4978629;28;46465;-71
2022/10/09 06:26:44;;;;;;;1.17;0.90;;;20.30;68.40;;;;;;4982842;28;45887;-70
2022/10/09 06:29:11;;;;;;;2.13;0.90;;;20.30;69.90;;;;;;4986822;28;45460;-70
2022/10/09 06:31:39;;;;;;;1.55;0.93;;;20.30;70.60;;;;;;4982998;28;45600;-70
2022/10/09 06:34:06;;;;;;;1.83;1.10;;;20.30;71.30;;;;;;4977638;28;47425;-70
2022/10/09 06:36:35;;;;;;;2.72;0.73;;;20.30;71.20;;;;;;4978906;28;45473;-71
2022/10/09 06:39:05;;;;;;;1.25;0.90;;;20.40;71.60;;;;;;4981474;28;45315;-71
2022/10/09 06:41:33;;;;;;;0.88;0.80;;;20.40;71.60;;;;;;4979731;28;45643;-71
2022/10/09 06:44:03;;;;;;;1.38;0.82;;;20.40;71.90;;;;;;4971776;28;46076;-71
2022/10/09 06:46:32;;;;;;;1.23;1.10;;;20.30;71.70;;;;;;4976119;28;45528;-70
2022/10/09 06:49:01;;;;;;;2.70;0.90;;;20.30;71.70;;;;;;4974727;28;45374;-71
2022/10/09 06:51:29;;;;;;;1.90;1.00;;;20.40;71.60;;;;;;4978704;28;45454;-71
2022/10/09 06:53:59;;;;;;;1.33;1.00;;;20.40;71.60;;;;;;4980913;28;46687;-70
2022/10/09 06:56:28;;;;;;;0.88;0.80;;;20.40;71.80;;;;;;4978411;28;45661;-70
2022/10/09 06:58:55;;;;;;;1.55;0.80;;;20.40;71.80;;;;;;4979292;28;45377;-71
2022/10/09 07:01:23;;;;;;;1.30;0.70;;;20.40;71.70;;;;;;4980598;28;45541;-71
2022/10/09 07:03:54;;;;;;;2.08;0.90;;;20.40;71.70;;;;;;4978615;28;46330;-71
2022/10/09 07:06:23;;;;;;;1.85;1.08;;;20.40;71.70;;;;;;4978845;28;45431;-71
2022/10/09 07:08:53;;;;;;;1.50;0.82;;;20.30;71.60;;;;;;4975696;28;45470;-71
2022/10/09 07:11:22;;;;;;;1.02;0.80;;;20.30;71.80;;;;;;4976464;28;45359;-71
2022/10/09 07:13:52;;;;;;;1.20;0.90;;;20.30;71.60;;;;;;4974236;28;46112;-70
2022/10/09 07:16:20;;;;;;;2.20;1.13;;;20.30;71.60;;;;;;4979785;28;45317;-70
2022/10/09 07:18:47;;;;;;;1.70;1.00;;;20.30;71.50;;;;;;4981198;28;45407;-70
2022/10/09 07:21:14;;;;;;;2.05;0.90;;;20.30;71.60;;;;;;4973921;28;45400;-71
2022/10/09 07:23:43;;;;;;;1.50;0.80;;;20.30;71.70;;;;;;4978371;28;46307;-70
2022/10/09 07:26:12;;;;;;;1.98;0.90;;;20.30;71.50;;;;;;4981050;28;45496;-71
2022/10/09 07:28:40;;;;;;;1.17;0.80;;;20.30;71.30;;;;;;4977865;28;45448;-70
2022/10/09 07:31:07;;;;;;;1.77;0.90;;;20.30;71.50;;;;;;4979660;28;45465;-70
2022/10/09 07:33:34;;;;;;;1.30;0.93;;;20.30;71.40;;;;;;4978832;28;46585;-71
2022/10/09 07:36:02;;;;;;;1.33;0.90;;;20.30;71.30;;;;;;4982235;28;45598;-71
2022/10/09 07:38:29;;;;;;;0.98;0.82;;;20.30;71.20;;;;;;4975147;28;45326;-70
2022/10/09 07:41:01;;;;;;;1.77;0.98;;;20.30;70.80;;;;;;4974322;28;45416;-70
2022/10/09 07:43:28;;;;;;;1.73;0.80;;;20.30;70.70;;;;;;4974317;28;47447;-71
2022/10/09 07:45:58;;;;;;;1.05;0.80;;;20.30;70.70;;;;;;4972747;28;45477;-70
2022/10/09 07:48:25;;;;;;;1.38;1.00;;;20.30;70.50;;;;;;4982196;28;45432;-70
2022/10/09 07:50:52;;;;;;;2.03;1.08;;;20.30;70.10;;;;;;4974153;28;45421;-70
2022/10/09 07:53:19;;;;;;;1.23;0.90;;;20.30;69.80;;;;;;4981182;28;45476;-70
2022/10/09 07:55:46;;;;;;;1.90;0.90;;;20.30;69.40;;;;;;4982847;28;45376;-70
2022/10/09 07:58:14;;;;;;;2.33;1.02;;;20.30;69.60;;;;;;4983660;28;45193;-70
2022/10/09 08:00:41;;;;;;;1.60;0.90;;;20.30;69.60;;;;;;4975700;28;45734;-70
2022/10/09 08:03:08;;;;;;;2.33;0.90;;;20.30;69.40;;;;;;4972511;28;46620;-70
2022/10/09 08:05:35;;;;;;;1.88;0.88;;;20.30;69.60;;;;;;4965209;28;45535;-70
2022/10/09 08:08:02;;;;;;;2.05;1.00;;;20.30;69.60;;;;;;4969975;28;45466;-70
2022/10/09 08:10:29;;;;;;;1.33;0.90;;;20.30;69.40;;;;;;4979906;28;45266;-70
2022/10/09 08:12:56;;;;;;;2.63;1.10;;;20.30;69.50;;;;;;4980758;28;46279;-69
2022/10/09 08:15:24;;;;;;;1.85;0.90;;;20.30;69.50;;;;;;4974957;28;45558;-71
2022/10/09 08:17:52;;;;;;;3.42;1.02;;;20.30;69.40;;;;;;4974212;28;45407;-71
2022/10/09 08:20:19;;;;;;;1.75;1.17;;;20.30;69.60;;;;;;4972319;28;45438;-71
2022/10/09 08:22:46;;;;;;;1.23;0.80;;;20.30;69.60;;;;;;4971712;28;46656;-71
2022/10/09 08:25:12;;;;;;;2.30;1.00;;;20.30;69.60;;;;;;4981954;28;45426;-70
2022/10/09 08:27:39;;;;;;;1.95;0.90;;;20.30;69.80;;;;;;4970654;28;45657;-71
2022/10/09 08:30:07;;;;;;;1.20;0.80;;;20.30;69.90;;;;;;4978166;28;45506;-70
2022/10/09 08:32:36;;;;;;;2.00;1.10;;;20.40;69.90;;;;;;4981354;28;45459;-71
2022/10/09 08:35:02;;;;;;;1.55;1.10;;;20.30;69.70;;;;;;4981941;28;45342;-71
2022/10/09 08:37:29;;;;;;;0.60;0.60;;;20.40;69.80;;;;;;4983028;28;45302;-70
2022/10/09 08:39:56;;;;;;;1.10;1.00;;;20.40;69.80;;;;;;4981055;28;45561;-70
2022/10/09 08:42:29;;;;;;;1.30;0.82;;;20.40;69.80;;;;;;4982197;28;46645;-71
2022/10/09 08:44:56;;;;;;;1.85;0.90;;;20.40;69.80;;;;;;4982486;28;45462;-71
2022/10/09 08:47:26;;;;;;;1.35;0.90;;;20.40;69.80;;;;;;4982765;28;45351;-70
2022/10/09 08:50:00;;;;;;;1.08;0.80;;;20.40;69.80;;;;;;4983045;28;45506;-70
2022/10/09 08:52:35;;;;;;;1.58;0.90;;;20.40;69.80;;;;;;4982129;28;47975;-71
2022/10/09 08:55:11;;;;;;;2.65;0.98;;;20.40;69.80;;;;;;4982308;28;45722;-71
2022/10/09 08:57:39;;;;;;;1.33;0.77;;;20.40;69.80;;;;;;4979510;28;45295;-70
2022/10/09 09:00:14;;;;;;;1.30;0.93;;;20.40;69.80;;;;;;4982263;28;45240;-70
2022/10/09 09:02:53;;;;;;;0.60;0.60;;;20.40;69.80;;;;;;4980703;28;46749;-70
2022/10/09 09:05:30;;;;;;;1.02;0.70;;;20.40;69.80;;;;;;4982280;28;45730;-71
2022/10/09 09:08:05;;;;;;;2.38;1.08;;;20.40;69.80;;;;;;4979728;28;45266;-70
2022/10/09 09:10:40;;;;;;;1.00;0.70;;;20.40;69.80;;;;;;4982356;28;45261;-70
2022/10/09 09:13:22;;;;;;;0.98;0.63;;;20.40;69.70;;;;;;4982072;28;47509;-70
2022/10/09 09:15:54;;;;;;;0.75;0.50;;;20.40;69.80;;;;;;4982300;28;45490;-70
2022/10/09 09:18:35;;;;;;;1.35;0.82;;;20.40;69.80;;;;;;4982641;28;45346;-70
2022/10/09 09:21:08;;;;;;;0.95;0.75;;;20.40;69.80;;;;;;4982310;28;45259;-70
2022/10/09 09:23:40;;;;;;;2.08;0.80;;;20.40;69.80;;;;;;4981344;28;48670;-70
2022/10/09 09:26:13;;;;;;;0.85;0.52;;;20.40;69.90;;;;;;4984814;28;45280;-70
2022/10/09 09:28:41;;;;;;;1.00;0.60;;;20.40;69.80;;;;;;4985633;28;45413;-70
2022/10/09 09:31:15;;;;;;;0.50;0.45;;;20.40;69.90;;;;;;4985128;28;45449;-71
2022/10/09 09:33:45;;;;;;;1.13;0.63;;;20.40;69.80;;;;;;4985168;28;48974;-70
2022/10/09 09:36:20;;;;;;;0.90;0.60;;;20.40;69.80;;;;;;4985813;28;45195;-71
2022/10/09 09:38:49;;;;;;;1.48;0.63;;;20.50;69.80;;;;;;4984717;28;45232;-71
2022/10/09 09:41:15;;;;;;;0.63;0.60;;;20.50;69.80;;;;;;4985971;28;45345;-70
2022/10/09 09:43:42;;;;;;;1.67;0.60;;;20.50;69.80;;;;;;4984735;28;46730;-70
2022/10/09 09:46:14;;;;;;;0.73;0.60;;;20.50;69.80;;;;;;4985167;28;46036;-70
2022/10/09 09:48:44;;;;;;;0.60;0.50;;;20.50;69.80;;;;;;4985400;28;45479;-70
2022/10/09 09:51:17;;;;;;;1.30;0.60;;;20.50;69.80;;;;;;4985307;28;45291;-70
2022/10/09 09:53:48;;;;;;;0.68;0.65;;;20.50;69.80;;;;;;4982619;28;46554;-69
2022/10/09 09:56:15;;;;;;;2.72;0.80;;;20.50;69.80;;;;;;4985135;28;45477;-70
2022/10/09 09:58:45;;;;;;;0.90;0.80;;;20.50;69.80;;;;;;4985494;28;45351;-70
2022/10/09 10:01:21;;;;;;;0.63;0.50;;;20.50;69.90;;;;;;4995062;28;45428;-70
2022/10/09 10:03:50;;;;;;;1.25;0.80;;;20.50;69.80;;;;;;5003035;28;45283;-70
2022/10/09 10:06:23;;;;;;;0.63;0.50;;;20.50;69.90;;;;;;5004360;28;45432;-70
2022/10/09 10:08:59;;;;;;;0.65;0.50;;;20.50;69.70;;;;;;5005238;28;45531;-71
2022/10/09 10:11:26;;;;;;;0.47;0.45;;;20.50;69.70;;;;;;5004558;28;45482;-70
2022/10/09 10:13:53;;;;;;;0.85;0.63;;;20.50;69.80;;;;;;5004399;28;47087;-70
2022/10/09 10:16:23;;;;;;;1.15;0.50;;;20.50;69.90;;;;;;5004150;28;45478;-71
2022/10/09 10:18:50;;;;;;;1.25;0.65;;;20.50;69.80;;;;;;5004379;28;45449;-71
2022/10/09 10:21:18;;;;;;;0.60;0.57;;;20.50;69.80;;;;;;5005140;28;45470;-70
2022/10/09 10:23:52;;;;;;;2.70;0.57;;;20.50;69.80;;;;;;5003544;28;48372;-70
2022/10/09 10:26:26;;;;;;;1.70;0.50;;;20.50;69.70;;;;;;5001768;28;45363;-70
2022/10/09 10:28:58;;;;;;;0.82;0.50;;;20.50;69.80;;;;;;5004433;28;45537;-70
2022/10/09 10:31:43;;;;;;;0.57;0.43;;;20.50;69.80;;;;;;5004615;28;45315;-70
2022/10/09 10:34:17;;;;;;;0.70;0.40;;;20.50;69.80;;;;;;5003760;28;47392;-70
2022/10/09 10:36:45;;;;;;;0.82;0.52;;;20.50;69.80;;;;;;5003148;28;45544;-71
2022/10/09 10:39:23;;;;;;;0.75;0.60;;;20.50;69.80;;;;;;5002978;28;45391;-70
2022/10/09 10:41:52;;;;;;;1.10;0.60;;;20.50;69.70;;;;;;5004118;28;45494;-71
2022/10/09 10:44:29;;;;;;;1.08;0.70;;;20.50;69.70;;;;;;5003855;28;45382;-70
2022/10/09 10:47:02;;;;;;;1.05;0.35;;;20.50;69.80;;;;;;5003090;28;45485;-70
2022/10/09 10:49:29;;;;;;;1.23;0.60;;;20.50;69.80;;;;;;4992340;28;45716;-70
2022/10/09 10:52:20;;;;;;;1.02;0.45;;;20.50;69.80;;;;;;5000132;28;45363;-70
2022/10/09 10:54:55;;;;;;;0.57;0.50;;;20.50;69.90;;;;;;5001003;28;47352;-71
2022/10/09 10:57:27;;;;;;;1.08;0.52;;;20.50;69.90;;;;;;5001369;28;45327;-70
2022/10/09 11:00:04;;;;;;;0.68;0.50;;;20.50;69.80;;;;;;5001141;28;45351;-70
2022/10/09 11:03:06;;;;;;;0.43;0.40;;;20.50;69.80;;;;;;4979333;28;45347;-70
2022/10/09 11:05:41;;;;;;;0.47;0.40;;;20.50;69.80;;;;;;4979023;28;45534;-70
2022/10/09 11:08:37;;;;;;;1.35;0.60;;;20.50;69.90;;;;;;4963216;28;45251;-71
2022/10/09 11:11:12;;;;;;;0.45;0.40;;;20.50;69.80;;;;;;4969175;28;45406;-71
2022/10/09 11:13:50;;;;;;;0.60;0.50;;;20.50;69.80;;;;;;4980025;28;45418;-71
2022/10/09 11:16:28;;;;;;;1.02;0.52;;;20.50;69.70;;;;;;4977392;28;45563;-71
2022/10/09 11:19:17;;;;;;;0.80;0.60;;;20.50;70.00;;;;;;4977235;28;45349;-71
2022/10/09 11:21:55;;;;;;;1.65;0.60;;;20.50;69.90;;;;;;4981412;28;45475;-71
2022/10/09 11:25:03;;;;;;;1.85;0.60;;;20.50;69.90;;;;;;4978233;28;45453;-70
2022/10/09 11:27:38;;;;;;;1.08;0.73;;;20.50;69.80;;;;;;4964732;28;45425;-71
2022/10/09 11:30:10;;;;;;;0.47;0.47;;;20.50;69.80;;;;;;4974902;28;45434;-71
2022/10/09 11:32:43;;;;;;;0.70;0.50;;;20.50;69.80;;;;;;4982073;28;45239;-70
2022/10/09 11:35:17;;;;;;;0.88;0.30;;;20.50;69.80;;;;;;4981789;28;45584;-70
2022/10/09 11:37:52;;;;;;;1.23;0.50;;;20.50;69.80;;;;;;4973345;28;45422;-70
2022/10/09 11:40:25;;;;;;;0.35;0.30;;;20.50;69.80;;;;;;4972890;28;45402;-71
2022/10/09 11:43:00;;;;;;;0.57;0.43;;;20.50;69.80;;;;;;4981901;28;45421;-70
2022/10/09 11:45:36;;;;;;;1.23;0.50;;;20.60;69.90;;;;;;4980717;28;45425;-71
2022/10/09 11:48:08;;;;;;;0.73;0.60;;;20.50;69.90;;;;;;4982303;28;47133;-71
2022/10/09 11:50:45;;;;;;;1.15;0.63;;;20.50;69.80;;;;;;4973717;28;45304;-70
2022/10/09 11:53:16;;;;;;;0.35;0.35;;;20.50;69.90;;;;;;4980005;28;45386;-70
2022/10/09 11:55:43;;;;;;;0.77;0.52;;;20.50;69.80;;;;;;4976890;28;45508;-71
2022/10/09 11:58:24;;;;;;;1.23;0.55;;;20.50;71.00;;;;;;4969889;28;46272;-70
2022/10/09 12:00:54;;;;;;;0.50;0.43;;;20.50;69.90;;;;;;4975557;28;45271;-71
2022/10/09 12:03:32;;;;;;;1.15;0.38;;;20.50;70.00;;;;;;4969837;28;45397;-70
2022/10/09 12:06:11;;;;;;;1.08;0.55;;;20.50;70.00;;;;;;4975696;28;45535;-70
2022/10/09 12:08:40;;;;;;;0.47;0.47;;;20.50;70.00;;;;;;4973087;28;47129;-71
2022/10/09 12:11:13;;;;;;;0.70;0.40;;;20.50;70.00;;;;;;4973748;28;45426;-70
2022/10/09 12:13:50;;;;;;;0.47;0.40;;;20.50;69.90;;;;;;4975037;28;45380;-70
2022/10/09 12:16:45;;;;;;;0.88;0.47;;;20.50;70.10;;;;;;4975515;28;45355;-70
2022/10/09 12:19:18;;;;;;;0.65;0.30;;;20.50;70.90;;;;;;4948150;28;47424;-70
2022/10/09 12:21:50;;;;;;;0.65;0.50;;;20.60;69.60;;;;;;4975565;28;45416;-71
2022/10/09 12:24:21;;;;;;;0.60;0.40;;;20.60;69.30;;;;;;4972405;28;45334;-71
2022/10/09 12:26:49;;;;;;;0.93;0.50;;;20.70;69.20;;;;;;4976715;28;45437;-70
2022/10/09 12:29:25;;;;;;;0.28;0.28;;;20.70;69.20;;;;;;4982556;28;45711;-70
2022/10/09 12:31:55;;;;;;;0.40;0.40;;;20.70;69.10;;;;;;4970931;28;45248;-71
2022/10/09 12:34:25;;;;;;;0.43;0.30;;;20.70;69.10;;;;;;4971981;28;45417;-70
2022/10/09 12:37:02;;;;;;;0.70;0.40;;;20.70;68.80;;;;;;4976199;28;45568;-70
2022/10/09 12:39:32;;;;;;;0.80;0.40;;;20.80;68.70;;;;;;4975535;28;47205;-70
2022/10/09 12:41:59;;;;;;;0.47;0.30;;;20.80;68.50;;;;;;4982557;28;45646;-70
2022/10/09 12:44:30;;;;;;;0.90;0.40;;;20.80;68.30;;;;;;4974422;28;45417;-70
2022/10/09 12:47:01;;;;;;;2.33;0.45;;;20.80;68.60;;;;;;4977601;28;45310;-70
2022/10/09 12:49:28;;;;;;;0.50;0.40;;;20.80;68.70;;;;;;4974148;28;45477;-70
2022/10/09 12:51:57;;;;;;;1.00;0.35;;;20.80;68.70;;;;;;4970423;28;45536;-70
2022/10/09 12:54:25;;;;;;;1.30;0.45;;;20.80;68.70;;;;;;4976026;28;45490;-70
2022/10/09 12:56:52;;;;;;;0.63;0.30;;;20.80;68.70;;;;;;4979197;28;45478;-70
2022/10/09 12:59:20;;;;;;;0.52;0.30;;;20.80;68.60;;;;;;4979654;28;46089;-70
2022/10/09 13:01:53;;;;;;;0.95;0.40;;;20.80;68.70;;;;;;4985064;28;45456;-70